createdAt,value
2017-03-17T00:00:36.455Z,0
2017-03-17T00:01:46.760Z,0
2017-03-17T00:02:57.056Z,0
2017-03-17T00:04:07.396Z,0
2017-03-17T00:05:18.190Z,0
2017-03-17T00:06:28.522Z,0
2017-03-17T00:07:38.826Z,0
2017-03-17T00:08:49.134Z,0
2017-03-17T00:09:59.447Z,0
2017-03-17T00:11:10.049Z,0
2017-03-17T00:12:20.371Z,0
2017-03-17T00:13:30.666Z,0
2017-03-17T00:14:40.974Z,0
2017-03-17T00:15:51.271Z,0
2017-03-17T00:17:01.867Z,0
2017-03-17T00:18:12.161Z,0
2017-03-17T00:19:22.472Z,0
2017-03-17T00:20:32.775Z,0
2017-03-17T00:21:43.098Z,0
2017-03-17T00:22:53.379Z,0
2017-03-17T00:24:03.687Z,0
2017-03-17T00:25:14.010Z,0
2017-03-17T00:26:24.343Z,0
2017-03-17T00:27:34.330Z,0
2017-03-17T00:28:44.932Z,0
2017-03-17T00:29:55.216Z,0
2017-03-17T00:31:05.520Z,0
2017-03-17T00:32:15.817Z,0
2017-03-17T00:33:25.811Z,0
2017-03-17T00:34:36.100Z,0
2017-03-17T00:35:46.401Z,0
2017-03-17T00:36:56.385Z,0
2017-03-17T00:38:06.687Z,0
2017-03-17T00:39:16.994Z,0
2017-03-17T00:40:27.594Z,0
2017-03-17T00:41:37.894Z,0
2017-03-17T00:42:48.190Z,0
2017-03-17T00:43:58.487Z,0
2017-03-17T00:45:08.471Z,0
2017-03-17T00:46:18.900Z,0
2017-03-17T00:47:29.199Z,0
2017-03-17T00:48:39.486Z,0
2017-03-17T00:49:49.808Z,0
2017-03-17T00:50:59.788Z,0
2017-03-17T00:52:10.071Z,0
2017-03-17T00:53:20.381Z,0
2017-03-17T00:54:30.679Z,0
2017-03-17T00:55:40.983Z,0
2017-03-17T00:56:50.967Z,0
2017-03-17T00:58:01.562Z,0
2017-03-17T00:59:11.543Z,0
2017-03-17T01:00:21.834Z,0
2017-03-17T01:01:32.199Z,0
2017-03-17T01:02:41.578Z,0
2017-03-17T01:03:52.180Z,0
2017-03-17T01:05:02.481Z,0
2017-03-17T01:06:12.800Z,0
2017-03-17T01:07:23.099Z,0
2017-03-17T01:08:33.079Z,0
2017-03-17T01:09:43.691Z,0
2017-03-17T01:10:53.985Z,0
2017-03-17T01:12:04.283Z,0
2017-03-17T01:13:14.567Z,0
2017-03-17T01:14:24.874Z,0
2017-03-17T01:15:35.486Z,0
2017-03-17T01:16:45.787Z,0
2017-03-17T01:17:55.774Z,0
2017-03-17T01:19:06.071Z,0
2017-03-17T01:20:16.362Z,0
2017-03-17T01:21:26.641Z,0
2017-03-17T01:22:36.941Z,0
2017-03-17T01:23:47.243Z,0
2017-03-17T01:24:57.543Z,0
2017-03-17T01:26:07.847Z,0
2017-03-17T01:27:18.443Z,0
2017-03-17T01:28:28.753Z,0
2017-03-17T01:29:39.050Z,0
2017-03-17T01:30:49.031Z,0
2017-03-17T01:31:59.279Z,0
2017-03-17T01:33:09.876Z,0
2017-03-17T01:34:19.850Z,0
2017-03-17T01:35:30.139Z,0
2017-03-17T01:36:40.129Z,0
2017-03-17T01:37:50.428Z,0
2017-03-17T01:39:00.768Z,0
2017-03-17T01:40:11.063Z,0
2017-03-17T01:41:21.351Z,0
2017-03-17T01:42:31.648Z,0
2017-03-17T01:43:41.943Z,0
2017-03-17T01:44:52.534Z,0
2017-03-17T01:46:02.853Z,0
2017-03-17T01:47:12.833Z,0
2017-03-17T01:48:22.826Z,0
2017-03-17T01:49:33.118Z,0
2017-03-17T01:50:43.401Z,0
2017-03-17T01:51:53.383Z,0
2017-03-17T01:53:03.675Z,0
2017-03-17T01:54:13.656Z,0
2017-03-17T01:55:23.659Z,0
2017-03-17T01:56:34.251Z,0
2017-03-17T01:57:44.238Z,0
2017-03-17T01:58:54.546Z,0
2017-03-17T02:00:04.839Z,0
2017-03-17T02:01:14.814Z,0
2017-03-17T02:02:25.402Z,0
2017-03-17T02:03:35.736Z,0
2017-03-17T02:04:46.030Z,0
2017-03-17T02:05:56.010Z,0
2017-03-17T02:07:05.991Z,0
2017-03-17T02:08:16.276Z,0
2017-03-17T02:09:26.565Z,0
2017-03-17T02:10:36.858Z,0
2017-03-17T02:11:47.156Z,0
2017-03-17T02:12:57.159Z,0
2017-03-17T02:14:07.758Z,0
2017-03-17T02:15:17.738Z,0
2017-03-17T02:16:27.412Z,0
2017-03-17T02:17:37.076Z,0
2017-03-17T02:18:47.386Z,0
2017-03-17T02:19:58.007Z,0
2017-03-17T02:21:08.334Z,0
2017-03-17T02:22:18.310Z,0
2017-03-17T02:23:28.600Z,0
2017-03-17T02:24:38.901Z,0
2017-03-17T02:25:49.194Z,0
2017-03-17T02:26:59.485Z,0
2017-03-17T02:28:09.781Z,0
2017-03-17T02:29:20.086Z,0
2017-03-17T02:30:30.068Z,0
2017-03-17T02:31:40.660Z,0
2017-03-17T02:32:50.689Z,0
2017-03-17T02:34:00.986Z,0
2017-03-17T02:35:11.290Z,0
2017-03-17T02:36:20.955Z,0
2017-03-17T02:37:31.552Z,0
2017-03-17T02:38:41.851Z,0
2017-03-17T02:39:51.834Z,0
2017-03-17T02:41:02.141Z,0
2017-03-17T02:42:12.436Z,0
2017-03-17T02:43:23.051Z,0
2017-03-17T02:44:33.355Z,0
2017-03-17T02:45:43.331Z,0
2017-03-17T02:46:53.316Z,0
2017-03-17T02:48:03.620Z,0
2017-03-17T02:49:14.231Z,0
2017-03-17T02:50:24.534Z,0
2017-03-17T02:51:34.833Z,0
2017-03-17T02:52:45.128Z,0
2017-03-17T02:53:55.438Z,0
2017-03-17T02:55:05.733Z,0
2017-03-17T02:56:16.029Z,0
2017-03-17T02:57:26.320Z,0
2017-03-17T02:58:36.661Z,0
2017-03-17T02:59:46.961Z,0
2017-03-17T03:00:57.557Z,0
2017-03-17T03:02:07.853Z,0
2017-03-17T03:03:18.158Z,0
2017-03-17T03:04:28.475Z,0
2017-03-17T03:05:38.772Z,0
2017-03-17T03:06:49.361Z,0
2017-03-17T03:07:59.673Z,0
2017-03-17T03:09:09.970Z,0
2017-03-17T03:10:20.269Z,0
2017-03-17T03:11:30.573Z,0
2017-03-17T03:12:41.176Z,0
2017-03-17T03:13:51.476Z,0
2017-03-17T03:15:01.470Z,0
2017-03-17T03:16:11.453Z,0
2017-03-17T03:17:21.751Z,0
2017-03-17T03:18:32.363Z,0
2017-03-17T03:19:42.349Z,0
2017-03-17T03:20:52.637Z,0
2017-03-17T03:22:02.631Z,0
2017-03-17T03:23:12.936Z,0
2017-03-17T03:24:23.547Z,0
2017-03-17T03:25:33.847Z,0
2017-03-17T03:26:43.834Z,0
2017-03-17T03:27:54.129Z,0
2017-03-17T03:29:04.463Z,0
2017-03-17T03:30:15.056Z,0
2017-03-17T03:31:25.373Z,0
2017-03-17T03:32:35.350Z,0
2017-03-17T03:33:45.657Z,0
2017-03-17T03:34:55.639Z,0
2017-03-17T03:36:06.265Z,0
2017-03-17T03:37:16.240Z,0
2017-03-17T03:38:26.545Z,0
2017-03-17T03:39:36.836Z,0
2017-03-17T03:40:47.139Z,0
2017-03-17T03:41:57.424Z,0
2017-03-17T03:43:07.738Z,0
2017-03-17T03:44:18.042Z,0
2017-03-17T03:45:28.338Z,0
2017-03-17T03:46:38.637Z,0
2017-03-17T03:47:49.246Z,0
2017-03-17T03:48:59.551Z,0
2017-03-17T03:50:09.850Z,0
2017-03-17T03:51:19.833Z,0
2017-03-17T03:52:30.132Z,0
2017-03-17T03:53:40.731Z,0
2017-03-17T03:54:51.032Z,0
2017-03-17T03:56:01.016Z,0
2017-03-17T03:57:11.320Z,0
2017-03-17T03:58:21.299Z,0
2017-03-17T03:59:31.588Z,0
2017-03-17T04:00:41.575Z,0
2017-03-17T04:01:51.866Z,0
2017-03-17T04:03:02.173Z,0
2017-03-17T04:04:12.170Z,0
2017-03-17T04:05:22.452Z,0
2017-03-17T04:06:32.755Z,0
2017-03-17T04:07:43.057Z,0
2017-03-17T04:08:53.364Z,0
2017-03-17T04:10:03.356Z,0
2017-03-17T04:11:13.952Z,0
2017-03-17T04:12:24.263Z,0
2017-03-17T04:13:34.564Z,0
2017-03-17T04:14:44.899Z,0
2017-03-17T04:15:54.880Z,0
2017-03-17T04:17:05.472Z,0
2017-03-17T04:18:15.453Z,0
2017-03-17T04:19:25.764Z,0
2017-03-17T04:20:36.076Z,0
2017-03-17T04:21:46.371Z,0
2017-03-17T04:22:56.657Z,0
2017-03-17T04:24:06.650Z,0
2017-03-17T04:25:16.637Z,0
2017-03-17T04:26:26.306Z,0
2017-03-17T04:27:36.592Z,0
2017-03-17T04:28:46.884Z,0
2017-03-17T04:29:57.182Z,0
2017-03-17T04:31:07.475Z,0
2017-03-17T04:32:17.761Z,0
2017-03-17T04:33:28.067Z,0
2017-03-17T04:34:38.663Z,0
2017-03-17T04:35:48.963Z,0
2017-03-17T04:36:59.264Z,0
2017-03-17T04:38:09.561Z,0
2017-03-17T04:39:19.562Z,0
2017-03-17T04:40:30.164Z,0
2017-03-17T04:41:40.463Z,0
2017-03-17T04:42:50.810Z,0
2017-03-17T04:44:01.113Z,0
2017-03-17T04:45:11.104Z,0
2017-03-17T04:46:21.376Z,0
2017-03-17T04:47:31.667Z,0
2017-03-17T04:48:41.962Z,0
2017-03-17T04:49:52.260Z,0
2017-03-17T04:51:02.560Z,0
2017-03-17T04:52:12.845Z,0
2017-03-17T04:53:23.149Z,0
2017-03-17T04:54:33.446Z,0
2017-03-17T04:55:43.755Z,0
2017-03-17T04:56:53.747Z,0
2017-03-17T04:58:04.015Z,0
2017-03-17T04:59:14.330Z,0
2017-03-17T05:00:24.311Z,0
2017-03-17T05:01:34.291Z,0
2017-03-17T05:02:44.599Z,0
2017-03-17T05:03:55.217Z,0
2017-03-17T05:05:04.888Z,0
2017-03-17T05:06:15.175Z,0
2017-03-17T05:07:25.470Z,0
2017-03-17T05:08:35.773Z,0
2017-03-17T05:09:46.375Z,0
2017-03-17T05:10:56.675Z,0
2017-03-17T05:12:06.964Z,0
2017-03-17T05:13:17.245Z,0
2017-03-17T05:14:27.592Z,0
2017-03-17T05:15:38.196Z,0
2017-03-17T05:16:48.500Z,0
2017-03-17T05:17:58.791Z,0
2017-03-17T05:19:09.103Z,0
2017-03-17T05:20:19.404Z,0
2017-03-17T05:21:29.687Z,0
2017-03-17T05:22:39.686Z,0
2017-03-17T05:23:49.674Z,0
2017-03-17T05:24:59.982Z,0
2017-03-17T05:26:10.282Z,0
2017-03-17T05:27:20.877Z,5
2017-03-17T05:28:30.866Z,5
2017-03-17T05:29:41.165Z,5
2017-03-17T05:30:51.171Z,5
2017-03-17T05:32:01.155Z,5
2017-03-17T05:33:11.745Z,5
2017-03-17T05:34:21.741Z,5
2017-03-17T05:35:32.058Z,5
2017-03-17T05:36:42.366Z,5
2017-03-17T05:37:52.670Z,10
2017-03-17T05:39:03.274Z,10
2017-03-17T05:40:13.604Z,10
2017-03-17T05:41:23.913Z,10
2017-03-17T05:42:34.218Z,10
2017-03-17T05:43:44.555Z,10
2017-03-17T05:44:55.163Z,10
2017-03-17T05:46:05.457Z,15
2017-03-17T05:47:15.447Z,15
2017-03-17T05:48:25.749Z,15
2017-03-17T05:49:36.056Z,15
2017-03-17T05:50:46.346Z,15
2017-03-17T05:51:56.641Z,15
2017-03-17T05:53:06.958Z,15
2017-03-17T05:54:16.964Z,15
2017-03-17T05:55:27.280Z,20
2017-03-17T05:56:38.336Z,20
2017-03-17T05:57:48.333Z,20
2017-03-17T05:58:58.691Z,20
2017-03-17T06:00:08.682Z,20
2017-03-17T06:01:18.984Z,15
2017-03-17T06:02:29.597Z,15
2017-03-17T06:03:39.908Z,15
2017-03-17T06:04:50.202Z,15
2017-03-17T06:06:00.502Z,15
2017-03-17T06:07:10.803Z,15
2017-03-17T06:08:21.398Z,15
2017-03-17T06:09:31.696Z,15
2017-03-17T06:10:41.997Z,15
2017-03-17T06:11:52.307Z,15
2017-03-17T06:13:02.605Z,20
2017-03-17T06:14:12.893Z,20
2017-03-17T06:15:23.187Z,20
2017-03-17T06:16:33.485Z,25
2017-03-17T06:17:43.165Z,25
2017-03-17T06:18:53.163Z,30
2017-03-17T06:20:03.777Z,30
2017-03-17T06:21:14.092Z,35
2017-03-17T06:22:24.390Z,40
2017-03-17T06:23:34.730Z,40
2017-03-17T06:24:45.034Z,45
2017-03-17T06:25:55.642Z,45
2017-03-17T06:27:05.939Z,40
2017-03-17T06:28:15.929Z,35
2017-03-17T06:29:26.254Z,35
2017-03-17T06:30:36.557Z,35
2017-03-17T06:31:47.318Z,30
2017-03-17T06:32:57.321Z,30
2017-03-17T06:34:07.612Z,30
2017-03-17T06:35:17.604Z,30
2017-03-17T06:36:27.898Z,35
2017-03-17T06:37:38.554Z,35
2017-03-17T06:38:48.879Z,40
2017-03-17T06:39:58.876Z,40
2017-03-17T06:41:08.871Z,35
2017-03-17T06:42:19.206Z,30
2017-03-17T06:43:29.508Z,30
2017-03-17T06:44:39.811Z,30
2017-03-17T06:45:49.812Z,30
2017-03-17T06:47:00.125Z,30
2017-03-17T06:48:09.815Z,30
2017-03-17T06:49:20.317Z,30
2017-03-17T06:50:30.663Z,25
2017-03-17T06:51:40.970Z,25
2017-03-17T06:52:51.283Z,30
2017-03-17T06:54:01.600Z,30
2017-03-17T06:55:11.881Z,30
2017-03-17T06:56:22.186Z,30
2017-03-17T06:57:32.467Z,35
2017-03-17T06:58:42.448Z,30
2017-03-17T06:59:52.765Z,30
2017-03-17T07:01:03.360Z,35
2017-03-17T07:02:13.347Z,30
2017-03-17T07:03:23.655Z,30
2017-03-17T07:04:34.014Z,35
2017-03-17T07:05:44.329Z,35
2017-03-17T07:06:54.928Z,40
2017-03-17T07:08:05.243Z,40
2017-03-17T07:09:15.550Z,35
2017-03-17T07:10:25.866Z,40
2017-03-17T07:11:36.163Z,35
2017-03-17T07:12:46.793Z,30
2017-03-17T07:13:57.118Z,30
2017-03-17T07:15:07.428Z,25
2017-03-17T07:16:17.414Z,25
2017-03-17T07:17:27.750Z,35
2017-03-17T07:18:38.078Z,35
2017-03-17T07:19:48.396Z,35
2017-03-17T07:20:58.774Z,30
2017-03-17T07:22:08.779Z,30
2017-03-17T07:23:19.124Z,25
2017-03-17T07:24:29.750Z,25
2017-03-17T07:25:39.747Z,30
2017-03-17T07:26:50.044Z,35
2017-03-17T07:28:00.381Z,30
2017-03-17T07:29:10.690Z,30
2017-03-17T07:30:21.309Z,30
2017-03-17T07:31:31.597Z,25
2017-03-17T07:32:41.903Z,20
2017-03-17T07:33:52.211Z,20
2017-03-17T07:35:02.513Z,15
2017-03-17T07:36:13.115Z,15
2017-03-17T07:37:23.472Z,15
2017-03-17T07:41:27.655Z,10
2017-03-17T07:42:37.986Z,10
2017-03-17T07:43:47.984Z,10
2017-03-17T07:44:58.327Z,10
2017-03-17T07:46:08.311Z,10
2017-03-17T07:47:18.288Z,15
2017-03-17T07:48:28.647Z,15
2017-03-17T07:49:39.059Z,20
2017-03-17T07:50:49.383Z,25
2017-03-17T07:51:59.684Z,25
2017-03-17T07:53:10.039Z,25
2017-03-17T07:54:20.045Z,30
2017-03-17T07:55:30.049Z,35
2017-03-17T07:56:40.359Z,30
2017-03-17T07:57:50.365Z,30
2017-03-17T07:59:00.672Z,35
2017-03-17T08:00:10.677Z,35
2017-03-17T08:01:20.985Z,30
2017-03-17T08:02:30.749Z,30
2017-03-17T08:03:40.746Z,30
2017-03-17T08:04:51.082Z,35
2017-03-17T08:06:01.406Z,40
2017-03-17T08:07:11.418Z,45
2017-03-17T08:08:21.741Z,45
2017-03-17T08:09:32.062Z,45
2017-03-17T08:10:42.395Z,45
2017-03-17T08:11:52.392Z,45
2017-03-17T08:13:02.760Z,45
2017-03-17T08:14:13.102Z,45
2017-03-17T08:15:23.121Z,50
2017-03-17T08:16:33.419Z,60
2017-03-17T08:17:43.745Z,70
2017-03-17T08:18:54.078Z,75
2017-03-17T08:20:04.407Z,85
2017-03-17T08:21:14.720Z,95
2017-03-17T08:22:25.332Z,105
2017-03-17T08:23:35.338Z,110
2017-03-17T08:24:45.655Z,110
2017-03-17T08:25:55.965Z,115
2017-03-17T08:27:06.278Z,120
2017-03-17T08:28:16.919Z,120
2017-03-17T08:29:27.227Z,115
2017-03-17T08:30:37.561Z,120
2017-03-17T08:31:47.552Z,120
2017-03-17T08:32:57.553Z,125
2017-03-17T08:34:08.163Z,125
2017-03-17T08:35:18.152Z,115
2017-03-17T08:36:28.437Z,115
2017-03-17T08:37:38.743Z,120
2017-03-17T08:38:49.068Z,110
2017-03-17T08:39:59.578Z,110
2017-03-17T08:41:09.902Z,115
2017-03-17T08:42:20.214Z,120
2017-03-17T08:43:30.529Z,120
2017-03-17T08:44:40.863Z,125
2017-03-17T08:45:51.556Z,125
2017-03-17T08:47:01.231Z,125
2017-03-17T08:48:11.552Z,125
2017-03-17T08:49:21.880Z,125
2017-03-17T08:50:32.227Z,125
2017-03-17T08:51:42.573Z,125
2017-03-17T08:52:52.889Z,120
2017-03-17T08:54:02.916Z,120
2017-03-17T08:55:13.247Z,125
2017-03-17T08:56:23.586Z,135
2017-03-17T08:57:33.587Z,135
2017-03-17T08:58:43.959Z,135
2017-03-17T08:59:54.000Z,125
2017-03-17T09:01:04.352Z,125
2017-03-17T09:02:14.675Z,120
2017-03-17T09:03:25.033Z,125
2017-03-17T09:04:35.040Z,120
2017-03-17T09:05:45.367Z,120
2017-03-17T09:06:55.373Z,120
2017-03-17T09:08:05.396Z,120
2017-03-17T09:09:15.704Z,120
2017-03-17T09:10:25.702Z,125
2017-03-17T09:11:36.061Z,125
2017-03-17T09:12:46.393Z,125
2017-03-17T09:13:56.392Z,130
2017-03-17T09:15:07.005Z,135
2017-03-17T09:16:17.312Z,140
2017-03-17T09:17:27.613Z,140
2017-03-17T09:18:37.312Z,140
2017-03-17T09:19:47.615Z,140
2017-03-17T09:20:58.237Z,140
2017-03-17T09:22:08.560Z,135
2017-03-17T09:23:18.887Z,130
2017-03-17T09:24:29.203Z,125
2017-03-17T09:25:39.530Z,130
2017-03-17T09:26:50.209Z,130
2017-03-17T09:28:00.541Z,135
2017-03-17T09:29:10.746Z,135
2017-03-17T09:30:20.765Z,130
2017-03-17T09:31:31.077Z,120
2017-03-17T09:32:41.689Z,120
2017-03-17T09:33:52.028Z,110
2017-03-17T09:35:02.356Z,120
2017-03-17T09:36:12.352Z,115
2017-03-17T09:37:22.726Z,115
2017-03-17T09:38:33.018Z,115
2017-03-17T09:39:43.360Z,110
2017-03-17T09:40:53.690Z,100
2017-03-17T09:42:04.027Z,105
2017-03-17T09:43:14.390Z,100
2017-03-17T09:44:24.703Z,105
2017-03-17T09:45:35.033Z,120
2017-03-17T09:46:45.348Z,85
2017-03-17T09:47:55.667Z,95
2017-03-17T09:49:05.987Z,110
2017-03-17T09:50:16.702Z,125
2017-03-17T09:51:27.172Z,105
2017-03-17T09:52:37.189Z,120
2017-03-17T09:53:47.512Z,125
2017-03-17T09:54:57.912Z,130
2017-03-17T09:56:08.546Z,115
2017-03-17T09:57:18.907Z,100
2017-03-17T09:58:29.259Z,85
2017-03-17T09:59:39.570Z,105
2017-03-17T10:00:49.887Z,100
2017-03-17T10:02:00.493Z,105
2017-03-17T10:03:10.524Z,90
2017-03-17T10:04:20.544Z,95
2017-03-17T10:05:30.934Z,115
2017-03-17T10:06:40.957Z,110
2017-03-17T10:07:51.263Z,85
2017-03-17T10:09:01.584Z,105
2017-03-17T10:10:11.779Z,95
2017-03-17T10:11:22.115Z,80
2017-03-17T10:12:32.422Z,70
2017-03-17T10:13:42.950Z,50
2017-03-17T10:14:52.976Z,70
2017-03-17T10:16:03.283Z,70
2017-03-17T10:17:13.612Z,100
2017-03-17T10:18:23.950Z,65
2017-03-17T10:19:33.969Z,50
2017-03-17T10:20:43.951Z,60
2017-03-17T10:21:54.290Z,65
2017-03-17T10:23:04.899Z,70
2017-03-17T10:24:14.626Z,65
2017-03-17T10:25:24.934Z,45
2017-03-17T10:26:35.248Z,50
2017-03-17T10:27:45.561Z,50
2017-03-17T10:28:55.889Z,110
2017-03-17T10:30:05.585Z,90
2017-03-17T10:31:16.205Z,75
2017-03-17T10:32:26.230Z,65
2017-03-17T10:33:36.403Z,70
2017-03-17T10:34:46.707Z,85
2017-03-17T10:35:57.028Z,95
2017-03-17T10:37:07.651Z,105
2017-03-17T10:38:17.670Z,110
2017-03-17T10:39:27.987Z,120
2017-03-17T10:40:38.361Z,140
2017-03-17T10:41:48.669Z,140
2017-03-17T10:42:59.273Z,145
2017-03-17T10:44:09.611Z,115
2017-03-17T10:45:19.932Z,50
2017-03-17T10:46:29.988Z,75
2017-03-17T10:47:40.071Z,75
2017-03-17T10:48:50.455Z,65
2017-03-17T10:50:00.758Z,55
2017-03-17T10:51:10.745Z,45
2017-03-17T10:52:21.071Z,35
2017-03-17T10:53:31.385Z,35
2017-03-17T10:54:41.418Z,40
2017-03-17T10:55:51.734Z,45
2017-03-17T10:57:02.041Z,45
2017-03-17T10:58:12.387Z,40
2017-03-17T10:59:22.732Z,40
2017-03-17T11:00:32.706Z,40
2017-03-17T11:01:42.697Z,40
2017-03-17T11:02:53.008Z,45
2017-03-17T11:04:03.315Z,50
2017-03-17T11:05:13.306Z,55
2017-03-17T11:06:23.941Z,60
2017-03-17T11:07:33.929Z,55
2017-03-17T11:08:44.253Z,55
2017-03-17T11:09:54.576Z,60
2017-03-17T11:11:04.870Z,55
2017-03-17T11:12:15.478Z,50
2017-03-17T11:13:25.476Z,65
2017-03-17T11:14:35.788Z,65
2017-03-17T11:15:46.105Z,70
2017-03-17T11:16:56.408Z,75
2017-03-17T11:18:06.719Z,70
2017-03-17T11:19:17.050Z,75
2017-03-17T11:20:27.360Z,80
2017-03-17T11:21:37.926Z,75
2017-03-17T11:22:48.251Z,75
2017-03-17T11:23:58.879Z,75
2017-03-17T11:25:09.184Z,60
2017-03-17T11:26:19.382Z,50
2017-03-17T11:27:29.710Z,45
2017-03-17T11:28:40.039Z,45
2017-03-17T11:29:50.675Z,50
2017-03-17T11:31:00.706Z,60
2017-03-17T11:32:11.010Z,80
2017-03-17T11:33:21.033Z,95
2017-03-17T11:34:31.338Z,105
2017-03-17T11:35:41.955Z,105
2017-03-17T11:36:52.258Z,105
2017-03-17T11:38:02.270Z,90
2017-03-17T11:39:12.605Z,95
2017-03-17T11:40:22.914Z,120
2017-03-17T11:41:33.497Z,125
2017-03-17T11:42:43.193Z,135
2017-03-17T11:43:53.545Z,135
2017-03-17T11:45:03.874Z,120
2017-03-17T11:46:14.170Z,120
2017-03-17T11:47:24.738Z,120
2017-03-17T11:48:35.152Z,105
2017-03-17T11:49:45.584Z,95
2017-03-17T11:50:55.907Z,105
2017-03-17T11:52:05.588Z,110
2017-03-17T11:53:16.147Z,120
2017-03-17T11:54:26.464Z,140
2017-03-17T11:55:36.479Z,140
2017-03-17T11:56:46.777Z,115
2017-03-17T11:57:57.110Z,95
2017-03-17T11:59:07.724Z,75
2017-03-17T12:00:18.047Z,85
2017-03-17T12:01:28.048Z,100
2017-03-17T12:02:38.367Z,95
2017-03-17T12:03:48.674Z,90
2017-03-17T12:04:58.938Z,80
2017-03-17T12:06:08.611Z,80
2017-03-17T12:07:18.943Z,90
2017-03-17T12:08:29.286Z,100
2017-03-17T12:09:39.305Z,95
2017-03-17T12:10:49.913Z,95
2017-03-17T12:12:00.271Z,100
2017-03-17T12:13:10.266Z,110
2017-03-17T12:14:20.573Z,120
2017-03-17T12:15:30.880Z,120
2017-03-17T12:16:41.170Z,120
2017-03-17T12:17:51.496Z,125
2017-03-17T12:19:01.824Z,120
2017-03-17T12:20:12.150Z,115
2017-03-17T12:21:22.521Z,110
2017-03-17T12:22:33.139Z,105
2017-03-17T12:23:43.475Z,105
2017-03-17T12:24:53.797Z,100
2017-03-17T12:26:03.797Z,105
2017-03-17T12:27:14.117Z,110
2017-03-17T12:28:24.683Z,110
2017-03-17T12:29:34.993Z,105
2017-03-17T12:30:45.292Z,110
2017-03-17T12:31:55.641Z,120
2017-03-17T12:33:05.954Z,115
2017-03-17T12:34:16.546Z,110
2017-03-17T12:35:26.552Z,95
2017-03-17T12:36:36.552Z,75
2017-03-17T12:37:46.851Z,95
2017-03-17T12:38:57.164Z,90
2017-03-17T12:40:07.785Z,115
2017-03-17T12:41:18.133Z,120
2017-03-17T12:42:28.445Z,125
2017-03-17T12:43:38.793Z,115
2017-03-17T12:44:49.106Z,120
2017-03-17T12:45:59.746Z,115
2017-03-17T12:47:09.746Z,115
2017-03-17T12:48:20.064Z,115
2017-03-17T12:49:29.762Z,85
2017-03-17T12:50:39.771Z,95
2017-03-17T12:51:50.050Z,105
2017-03-17T12:53:00.064Z,70
2017-03-17T12:54:09.772Z,55
2017-03-17T12:55:20.146Z,45
2017-03-17T12:56:30.152Z,55
2017-03-17T12:57:40.469Z,45
2017-03-17T12:58:50.527Z,30
2017-03-17T13:00:00.872Z,60
2017-03-17T13:01:11.188Z,85
2017-03-17T13:02:21.570Z,60
2017-03-17T13:03:32.133Z,30
2017-03-17T13:04:42.445Z,30
2017-03-17T13:05:52.752Z,30
2017-03-17T13:07:03.061Z,25
2017-03-17T13:08:12.764Z,25
2017-03-17T13:09:23.388Z,45
2017-03-17T13:10:33.823Z,55
2017-03-17T13:11:43.820Z,55
2017-03-17T13:12:53.824Z,45
2017-03-17T13:14:04.160Z,45
2017-03-17T13:15:14.783Z,40
2017-03-17T13:16:25.093Z,45
2017-03-17T13:17:35.424Z,95
2017-03-17T13:18:45.772Z,110
2017-03-17T13:19:56.098Z,115
2017-03-17T13:21:06.736Z,115
2017-03-17T13:22:16.441Z,110
2017-03-17T13:23:26.463Z,110
2017-03-17T13:24:36.790Z,110
2017-03-17T13:25:47.110Z,105
2017-03-17T13:26:57.435Z,105
2017-03-17T13:28:07.433Z,105
2017-03-17T13:29:17.769Z,105
2017-03-17T13:30:28.095Z,100
2017-03-17T13:31:38.416Z,100
2017-03-17T13:32:48.979Z,105
2017-03-17T13:33:59.014Z,105
2017-03-17T13:35:09.030Z,105
2017-03-17T13:36:19.037Z,100
2017-03-17T13:37:29.349Z,90
2017-03-17T13:38:39.928Z,90
2017-03-17T13:39:50.259Z,95
2017-03-17T13:41:00.571Z,95
2017-03-17T13:42:10.596Z,100
2017-03-17T13:43:20.941Z,100
2017-03-17T13:44:31.564Z,95
2017-03-17T13:45:41.618Z,90
2017-03-17T13:46:51.656Z,90
2017-03-17T13:48:01.993Z,85
2017-03-17T13:49:12.338Z,80
2017-03-17T13:50:22.648Z,75
2017-03-17T13:51:33.020Z,75
2017-03-17T13:52:43.410Z,70
2017-03-17T13:53:53.839Z,70
2017-03-17T13:55:04.208Z,70
2017-03-17T13:56:14.491Z,70
2017-03-17T13:57:24.851Z,70
2017-03-17T13:58:35.256Z,65
2017-03-17T13:59:45.618Z,65
2017-03-17T14:00:55.622Z,65
2017-03-17T14:02:06.303Z,70
2017-03-17T14:03:16.915Z,70
2017-03-17T14:04:27.268Z,70
2017-03-17T14:05:37.618Z,70
2017-03-17T14:06:47.931Z,70
2017-03-17T14:07:58.560Z,70
2017-03-17T14:09:08.875Z,65
2017-03-17T14:10:19.233Z,65
2017-03-17T14:11:29.548Z,60
2017-03-17T14:12:39.870Z,60
2017-03-17T14:13:50.182Z,65
2017-03-17T14:15:00.194Z,65
2017-03-17T14:16:10.514Z,60
2017-03-17T14:17:20.501Z,60
2017-03-17T14:18:30.861Z,55
2017-03-17T14:19:41.423Z,55
2017-03-17T14:20:51.198Z,55
2017-03-17T14:22:01.500Z,55
2017-03-17T14:23:11.800Z,60
2017-03-17T14:24:22.112Z,60
2017-03-17T14:25:32.729Z,60
2017-03-17T14:26:43.053Z,65
2017-03-17T14:27:53.386Z,65
2017-03-17T14:29:03.704Z,65
2017-03-17T14:30:14.008Z,65
2017-03-17T14:31:24.578Z,60
2017-03-17T14:32:34.614Z,60
2017-03-17T14:33:44.915Z,60
2017-03-17T14:34:54.918Z,55
2017-03-17T14:36:04.982Z,55
2017-03-17T14:37:15.553Z,55
2017-03-17T14:38:25.874Z,60
2017-03-17T14:39:36.203Z,60
2017-03-17T14:40:46.530Z,60
2017-03-17T14:41:56.842Z,60
2017-03-17T14:43:07.410Z,60
2017-03-17T14:44:17.740Z,60
2017-03-17T14:45:27.721Z,60
2017-03-17T14:46:38.046Z,60
2017-03-17T14:47:48.358Z,60
2017-03-17T14:48:58.952Z,60
2017-03-17T14:50:09.276Z,55
2017-03-17T14:51:19.597Z,55
2017-03-17T14:52:29.902Z,55
2017-03-17T14:53:40.223Z,55
2017-03-17T14:54:50.464Z,55
2017-03-17T14:56:00.466Z,55
2017-03-17T14:57:10.471Z,55
2017-03-17T14:58:20.778Z,55
2017-03-17T14:59:31.141Z,50
2017-03-17T15:00:41.734Z,50
2017-03-17T15:01:52.050Z,50
2017-03-17T15:03:02.380Z,50
2017-03-17T15:04:12.746Z,50
2017-03-17T15:05:23.058Z,50
2017-03-17T15:06:33.720Z,50
2017-03-17T15:07:44.048Z,45
2017-03-17T15:08:54.386Z,45
2017-03-17T15:10:04.418Z,45
2017-03-17T15:11:14.409Z,45
2017-03-17T15:12:24.640Z,40
2017-03-17T15:13:34.954Z,40
2017-03-17T15:14:45.287Z,40
2017-03-17T15:15:55.600Z,40
2017-03-17T15:17:05.926Z,40
2017-03-17T15:18:16.553Z,40
2017-03-17T15:19:26.892Z,40
2017-03-17T15:20:37.218Z,40
2017-03-17T15:21:47.541Z,40
2017-03-17T15:22:57.871Z,40
2017-03-17T15:24:08.121Z,40
2017-03-17T15:25:18.442Z,40
2017-03-17T15:26:28.741Z,40
2017-03-17T15:27:38.742Z,40
2017-03-17T15:28:49.074Z,40
2017-03-17T15:29:59.660Z,40
2017-03-17T15:31:09.965Z,40
2017-03-17T15:32:20.301Z,35
2017-03-17T15:33:30.310Z,35
2017-03-17T15:34:40.629Z,35
2017-03-17T15:35:51.206Z,35
2017-03-17T15:37:01.525Z,40
2017-03-17T15:38:11.840Z,35
2017-03-17T15:39:22.141Z,35
2017-03-17T15:40:32.439Z,35
2017-03-17T15:41:43.061Z,35
2017-03-17T15:42:53.372Z,35
2017-03-17T15:44:03.683Z,35
2017-03-17T15:45:13.685Z,35
2017-03-17T15:46:24.018Z,35
2017-03-17T15:47:34.575Z,35
2017-03-17T15:48:44.895Z,35
2017-03-17T15:49:54.924Z,30
2017-03-17T15:51:05.253Z,30
2017-03-17T15:52:15.555Z,30
2017-03-17T15:53:26.361Z,30
2017-03-17T15:54:36.664Z,30
2017-03-17T15:55:46.969Z,25
2017-03-17T15:56:56.646Z,25
2017-03-17T15:58:06.974Z,20
2017-03-17T15:59:17.541Z,20
2017-03-17T16:00:27.860Z,20
2017-03-17T16:01:38.210Z,20
2017-03-17T16:02:48.543Z,20
2017-03-17T16:03:58.858Z,20
2017-03-17T16:05:09.432Z,20
2017-03-17T16:06:19.745Z,20
2017-03-17T16:07:29.138Z,20
2017-03-17T16:08:39.131Z,15
2017-03-17T16:09:49.442Z,15
2017-03-17T16:10:59.702Z,10
2017-03-17T16:12:09.719Z,10
2017-03-17T16:13:20.044Z,5
2017-03-17T16:14:30.401Z,5
2017-03-17T16:15:40.745Z,5
2017-03-17T16:16:51.327Z,10
2017-03-17T16:18:01.632Z,10
2017-03-17T16:19:11.631Z,10
2017-03-17T16:20:21.948Z,15
2017-03-17T16:21:32.248Z,15
2017-03-17T16:22:42.495Z,10
2017-03-17T16:23:52.498Z,10
2017-03-17T16:25:02.820Z,10
2017-03-17T16:26:13.127Z,10
2017-03-17T16:27:23.432Z,10
2017-03-17T16:28:34.026Z,10
2017-03-17T16:29:44.332Z,10
2017-03-17T16:30:54.647Z,10
2017-03-17T16:32:04.665Z,10
2017-03-17T16:33:14.659Z,10
2017-03-17T16:34:25.228Z,10
2017-03-17T16:35:35.527Z,10
2017-03-17T16:36:45.533Z,10
2017-03-17T16:37:55.833Z,10
2017-03-17T16:39:06.133Z,10
2017-03-17T16:40:16.701Z,10
2017-03-17T16:41:27.014Z,10
2017-03-17T16:42:37.331Z,10
2017-03-17T16:43:47.653Z,10
2017-03-17T16:44:57.656Z,10
2017-03-17T16:46:08.226Z,5
2017-03-17T16:47:18.696Z,10
2017-03-17T16:48:28.716Z,10
2017-03-17T16:49:39.033Z,10
2017-03-17T16:50:49.360Z,10